Time;durP1;ratioP1;P1;durP2;ratioP2;P2;SDS_P1;SDS_P2;PMS_P1;PMS_P2;Temp;Humidity;BMP_temperature;BMP_pressure;BME280_temperature;BME280_humidity;BME280_pressure;Samples;Min_cycle;Max_cycle;Signal;HPM_P1;HPM_P2
2023/12/02 00:01:47;;;;;;;3.70;3.40;;;9.70;82.70;;;;;;4928265;29;20229;-83
2023/12/02 00:04:17;;;;;;;2.67;2.40;;;9.70;82.70;;;;;;4928754;29;20211;-84
2023/12/02 00:06:46;;;;;;;4.67;4.17;;;9.70;82.70;;;;;;4938904;29;20647;-85
2023/12/02 00:09:15;;;;;;;7.53;3.30;;;9.70;82.80;;;;;;4930053;29;20214;-85
2023/12/02 00:11:44;;;;;;;6.50;4.87;;;9.70;82.70;;;;;;4931599;29;20286;-85
2023/12/02 00:14:12;;;;;;;3.03;2.83;;;9.70;82.70;;;;;;4930225;29;20195;-82
2023/12/02 00:16:41;;;;;;;3.57;3.20;;;9.70;82.70;;;;;;4923708;29;20206;-82
2023/12/02 00:19:10;;;;;;;5.07;3.33;;;9.70;82.70;;;;;;4930242;29;20222;-84
2023/12/02 00:21:41;;;;;;;3.40;2.90;;;9.70;82.80;;;;;;4925356;29;20246;-84
2023/12/02 00:24:10;;;;;;;4.57;3.43;;;9.70;82.80;;;;;;4931219;29;20199;-84
2023/12/02 00:26:39;;;;;;;6.33;3.73;;;9.70;82.80;;;;;;4926810;29;20200;-84
2023/12/02 00:29:07;;;;;;;6.07;3.43;;;9.60;82.70;;;;;;4927419;29;20245;-84
2023/12/02 00:31:36;;;;;;;4.60;2.97;;;9.70;82.80;;;;;;4928866;29;20682;-84
2023/12/02 00:34:05;;;;;;;2.63;2.40;;;9.70;82.80;;;;;;4924165;29;20230;-84
2023/12/02 00:36:34;;;;;;;2.70;2.50;;;9.70;82.90;;;;;;4925240;29;20195;-84
2023/12/02 00:39:05;;;;;;;6.53;3.93;;;9.70;83.00;;;;;;4927198;29;20621;-84
2023/12/02 00:41:34;;;;;;;2.27;2.07;;;9.70;82.90;;;;;;4927690;29;20207;-84
2023/12/02 00:44:02;;;;;;;5.33;3.07;;;9.70;83.00;;;;;;4928691;29;20227;-83
2023/12/02 00:46:32;;;;;;;9.53;4.93;;;9.70;83.00;;;;;;4927259;29;20203;-84
2023/12/02 00:49:00;;;;;;;9.37;6.43;;;9.60;83.10;;;;;;4921891;29;20219;-83
2023/12/02 00:51:29;;;;;;;7.60;3.10;;;9.60;83.10;;;;;;4927332;29;20203;-83
2023/12/02 00:53:58;;;;;;;1.90;1.80;;;9.60;83.10;;;;;;4928750;29;20199;-83
2023/12/02 00:56:29;;;;;;;1.83;1.70;;;9.60;83.10;;;;;;4928546;29;20195;-83
2023/12/02 00:58:58;;;;;;;8.33;3.10;;;9.60;83.20;;;;;;4926608;29;20246;-84
2023/12/02 01:01:26;;;;;;;11.80;5.00;;;9.70;83.30;;;;;;4929647;29;20278;-83
2023/12/02 01:03:55;;;;;;;3.23;2.67;;;9.70;83.30;;;;;;4934696;29;20223;-86
2023/12/02 01:06:24;;;;;;;3.73;3.20;;;9.70;83.30;;;;;;4937364;29;20238;-84
2023/12/02 01:08:54;;;;;;;2.43;2.27;;;9.70;83.40;;;;;;4929081;29;20206;-84
2023/12/02 01:11:23;;;;;;;4.33;3.23;;;9.70;83.50;;;;;;4925845;29;20207;-83
2023/12/02 01:13:54;;;;;;;3.27;2.97;;;9.70;83.40;;;;;;4931601;29;20565;-84
2023/12/02 01:16:22;;;;;;;6.13;2.70;;;9.70;83.50;;;;;;4928653;29;20191;-84
2023/12/02 01:18:51;;;;;;;6.43;3.20;;;9.70;83.60;;;;;;4928634;29;20214;-85
2023/12/02 01:21:20;;;;;;;2.27;1.90;;;9.70;83.70;;;;;;4928781;29;20603;-83
2023/12/02 01:23:49;;;;;;;6.33;3.37;;;9.70;83.80;;;;;;4928103;29;20535;-81
2023/12/02 01:26:18;;;;;;;1.80;1.70;;;9.70;83.80;;;;;;4923687;29;20199;-83
2023/12/02 01:28:46;;;;;;;2.77;2.57;;;9.80;83.90;;;;;;4927305;29;20955;-84
2023/12/02 01:31:16;;;;;;;3.03;2.13;;;9.80;83.80;;;;;;4926445;29;20450;-85
2023/12/02 01:33:45;;;;;;;2.97;2.67;;;9.80;83.80;;;;;;4924869;29;20214;-85
2023/12/02 01:36:15;;;;;;;3.90;2.73;;;9.80;83.90;;;;;;4929735;29;20227;-83
2023/12/02 01:38:44;;;;;;;2.43;2.23;;;9.80;83.90;;;;;;4930128;29;20203;-84
2023/12/02 01:41:13;;;;;;;2.27;2.07;;;9.80;84.00;;;;;;4929766;29;20196;-82
2023/12/02 01:43:41;;;;;;;1.97;1.83;;;9.80;83.80;;;;;;4925704;29;20656;-82
2023/12/02 01:46:10;;;;;;;3.80;2.83;;;9.80;83.90;;;;;;4926126;29;20657;-85
2023/12/02 01:48:40;;;;;;;2.07;1.67;;;9.90;83.90;;;;;;4924505;29;20215;-84
2023/12/02 01:51:10;;;;;;;1.33;1.23;;;9.90;83.90;;;;;;4927292;29;20203;-82
2023/12/02 01:53:40;;;;;;;3.87;2.83;;;9.90;84.00;;;;;;4929474;29;20690;-83
2023/12/02 01:56:10;;;;;;;1.47;1.37;;;9.90;84.00;;;;;;4928581;29;20199;-84
2023/12/02 01:58:39;;;;;;;2.73;2.53;;;9.90;84.00;;;;;;4927543;29;20251;-84
2023/12/02 02:01:08;;;;;;;4.63;2.90;;;9.90;83.90;;;;;;4924608;29;20200;-84
2023/12/02 02:03:37;;;;;;;2.93;2.67;;;9.90;83.90;;;;;;4931985;29;20226;-85
2023/12/02 02:06:10;;;;;;;4.83;2.50;;;9.90;84.00;;;;;;4931242;29;20200;-84
2023/12/02 02:08:39;;;;;;;7.00;3.73;;;9.90;84.00;;;;;;4928404;29;20199;-84
2023/12/02 02:11:08;;;;;;;3.47;2.40;;;9.90;84.00;;;;;;4934123;29;20196;-83
2023/12/02 02:13:36;;;;;;;4.60;3.13;;;9.90;84.00;;;;;;4912341;29;20207;-83
2023/12/02 02:16:05;;;;;;;3.27;2.07;;;9.90;84.00;;;;;;4911855;29;20203;-84
2023/12/02 02:18:36;;;;;;;1.60;1.20;;;9.90;84.00;;;;;;4929918;29;20947;-84
2023/12/02 02:21:07;;;;;;;2.83;2.63;;;9.90;84.00;;;;;;4933751;29;20231;-84
2023/12/02 02:23:38;;;;;;;3.80;3.33;;;9.90;84.00;;;;;;4922772;29;20703;-82
2023/12/02 02:26:07;;;;;;;1.67;1.53;;;9.90;84.00;;;;;;4930905;29;20606;-85
2023/12/02 02:28:36;;;;;;;2.83;2.47;;;9.90;84.10;;;;;;4927068;29;20238;-84
2023/12/02 02:31:05;;;;;;;3.67;1.80;;;9.90;84.10;;;;;;4930116;29;20326;-84
2023/12/02 02:33:34;;;;;;;2.93;2.37;;;9.90;84.20;;;;;;4921260;29;20648;-85
2023/12/02 02:36:03;;;;;;;7.67;3.70;;;9.90;84.30;;;;;;4924648;29;20694;-85
2023/12/02 02:38:32;;;;;;;6.57;4.83;;;10.00;84.40;;;;;;4921070;29;21087;-84
2023/12/02 02:41:02;;;;;;;2.80;2.53;;;9.90;84.30;;;;;;4924042;29;20211;-83
2023/12/02 02:43:30;;;;;;;3.50;2.67;;;9.90;84.30;;;;;;4936786;29;20230;-84
2023/12/02 02:45:59;;;;;;;2.27;2.07;;;9.90;84.40;;;;;;4931370;29;20314;-84
2023/12/02 02:48:28;;;;;;;2.37;2.13;;;9.90;84.40;;;;;;4924578;29;20199;-85
2023/12/02 02:50:57;;;;;;;2.87;1.93;;;9.90;84.40;;;;;;4928106;29;20282;-84
2023/12/02 02:53:26;;;;;;;3.97;2.37;;;9.90;84.40;;;;;;4921144;29;20237;-84
2023/12/02 02:55:55;;;;;;;8.97;4.03;;;9.90;84.50;;;;;;4908090;29;20192;-83
2023/12/02 02:58:26;;;;;;;6.73;4.03;;;9.90;84.40;;;;;;4926292;29;20191;-84
2023/12/02 03:00:54;;;;;;;3.50;2.93;;;9.90;84.60;;;;;;4928850;29;20199;-84
2023/12/02 03:03:23;;;;;;;3.10;2.33;;;9.90;84.60;;;;;;4916357;29;20339;-83
2023/12/02 03:05:52;;;;;;;2.30;2.10;;;9.90;84.60;;;;;;4931998;29;20279;-85
2023/12/02 03:08:22;;;;;;;4.83;2.13;;;9.90;84.60;;;;;;4930421;29;20204;-83
2023/12/02 03:10:51;;;;;;;5.00;2.67;;;9.90;84.60;;;;;;4929766;29;20203;-84
2023/12/02 03:13:20;;;;;;;2.87;2.50;;;9.90;84.70;;;;;;4929246;29;20214;-83
2023/12/02 03:15:50;;;;;;;7.93;3.67;;;10.00;84.80;;;;;;4927056;29;20199;-83
2023/12/02 03:18:18;;;;;;;3.97;2.00;;;10.00;84.80;;;;;;4923145;29;20204;-84
2023/12/02 03:20:47;;;;;;;2.63;2.40;;;9.90;84.70;;;;;;4928986;29;20263;-84
2023/12/02 03:23:16;;;;;;;2.70;2.47;;;10.00;84.80;;;;;;4928499;29;20271;-85
2023/12/02 03:25:45;;;;;;;5.70;2.07;;;10.00;85.00;;;;;;4930347;29;20195;-84
2023/12/02 03:28:14;;;;;;;9.10;3.97;;;10.00;85.00;;;;;;4927777;29;20309;-84
2023/12/02 03:30:42;;;;;;;24.00;4.03;;;10.00;85.30;;;;;;4934147;29;20287;-85
2023/12/02 03:33:17;;;;;;;3.93;2.93;;;10.00;85.20;;;;;;4926950;29;20203;-84
2023/12/02 03:35:46;;;;;;;2.80;2.33;;;10.00;85.20;;;;;;4928114;29;20567;-82
2023/12/02 03:38:14;;;;;;;3.90;3.47;;;10.00;85.50;;;;;;4929765;29;20336;-84
2023/12/02 03:40:43;;;;;;;9.73;4.63;;;10.00;85.40;;;;;;4927735;29;20210;-83
2023/12/02 03:43:12;;;;;;;1.63;1.53;;;10.00;85.40;;;;;;4926494;29;20611;-82
2023/12/02 03:45:41;;;;;;;8.90;4.83;;;10.00;85.90;;;;;;4928581;29;20226;-84
2023/12/02 03:48:10;;;;;;;2.97;2.77;;;10.00;85.50;;;;;;4924782;29;20286;-83
2023/12/02 03:50:40;;;;;;;4.10;3.77;;;10.00;85.50;;;;;;4927194;29;20261;-84
2023/12/02 03:53:09;;;;;;;2.73;2.47;;;10.00;85.50;;;;;;4928152;29;20203;-84
2023/12/02 03:55:38;;;;;;;6.70;2.93;;;10.00;85.50;;;;;;4928788;29;20262;-84
2023/12/02 03:58:06;;;;;;;4.27;3.00;;;10.10;85.80;;;;;;4928334;29;20199;-84
2023/12/02 04:00:35;;;;;;;6.10;3.83;;;10.00;86.20;;;;;;4927552;29;20199;-85
2023/12/02 04:03:05;;;;;;;2.03;1.93;;;10.10;86.40;;;;;;4924075;29;20202;-83
2023/12/02 04:05:34;;;;;;;3.73;2.67;;;10.10;86.60;;;;;;4927189;29;20609;-84
2023/12/02 04:08:04;;;;;;;3.60;2.37;;;10.10;86.60;;;;;;4930838;29;20203;-85
2023/12/02 04:10:33;;;;;;;3.60;3.30;;;10.10;86.40;;;;;;4927941;29;20227;-84
2023/12/02 04:13:01;;;;;;;4.10;2.87;;;10.10;86.30;;;;;;4923565;29;20195;-84
2023/12/02 04:15:31;;;;;;;3.27;3.03;;;10.10;87.30;;;;;;4929114;29;20204;-84
2023/12/02 04:18:00;;;;;;;4.60;2.50;;;10.10;86.40;;;;;;4927788;29;20235;-83
2023/12/02 04:20:29;;;;;;;2.97;2.37;;;10.20;86.30;;;;;;4920574;29;20226;-83
2023/12/02 04:22:58;;;;;;;1.90;1.80;;;10.10;86.10;;;;;;4928414;29;20192;-85
2023/12/02 04:25:30;;;;;;;2.17;2.03;;;10.20;86.10;;;;;;4920427;29;20695;-83
2023/12/02 04:27:59;;;;;;;2.13;1.93;;;10.20;86.10;;;;;;4928599;29;20210;-84
2023/12/02 04:30:28;;;;;;;4.03;3.20;;;10.20;85.90;;;;;;4929369;29;20195;-84
2023/12/02 04:32:56;;;;;;;3.50;3.13;;;10.20;85.80;;;;;;4930715;29;20274;-83
2023/12/02 04:35:26;;;;;;;2.50;2.30;;;10.20;85.80;;;;;;4929219;29;20206;-83
2023/12/02 04:37:54;;;;;;;5.07;2.43;;;10.20;85.70;;;;;;4937598;29;20722;-83
2023/12/02 04:40:23;;;;;;;1.67;1.57;;;10.20;85.70;;;;;;4931856;29;20203;-85
2023/12/02 04:42:53;;;;;;;2.63;2.47;;;10.20;85.50;;;;;;4932300;29;20626;-83
2023/12/02 04:45:22;;;;;;;2.67;2.20;;;10.20;85.70;;;;;;4932496;29;20262;-83
2023/12/02 04:47:52;;;;;;;6.20;2.80;;;10.20;85.50;;;;;;4932161;29;20254;-83
2023/12/02 04:50:21;;;;;;;4.03;3.70;;;10.20;85.60;;;;;;4931775;29;20215;-85
2023/12/02 04:52:50;;;;;;;9.37;4.70;;;10.10;85.50;;;;;;4932485;29;20199;-84
2023/12/02 04:55:19;;;;;;;13.87;4.17;;;10.10;85.80;;;;;;4944610;29;20199;-84
2023/12/02 04:57:47;;;;;;;6.67;2.50;;;10.10;85.90;;;;;;4933220;29;20203;-84
2023/12/02 05:00:18;;;;;;;5.10;3.43;;;10.00;85.90;;;;;;4922623;29;20549;-83
2023/12/02 05:02:47;;;;;;;4.03;2.87;;;10.00;86.10;;;;;;4931485;29;20207;-83
2023/12/02 05:05:25;;;;;;;2.07;1.83;;;10.10;86.40;;;;;;4927889;29;20228;-85
2023/12/02 05:07:54;;;;;;;6.73;3.97;;;10.00;86.90;;;;;;4931381;29;20195;-85
2023/12/02 05:10:23;;;;;;;7.03;4.00;;;10.00;87.00;;;;;;4933407;29;20808;-83
2023/12/02 05:12:52;;;;;;;2.67;2.03;;;10.00;87.30;;;;;;4933649;29;20202;-83
2023/12/02 05:15:22;;;;;;;4.80;3.77;;;10.00;87.60;;;;;;4928927;29;20537;-85
2023/12/02 05:17:51;;;;;;;2.83;2.60;;;10.00;87.70;;;;;;4932321;29;20745;-83
2023/12/02 05:20:21;;;;;;;2.47;1.57;;;10.00;87.60;;;;;;4927075;29;20206;-84
2023/12/02 05:22:50;;;;;;;2.13;2.03;;;10.00;87.60;;;;;;4934828;29;20210;-83
2023/12/02 05:25:19;;;;;;;3.10;2.10;;;10.00;87.60;;;;;;4934918;29;20237;-83
2023/12/02 05:27:49;;;;;;;2.40;2.03;;;10.10;87.50;;;;;;4927068;29;20205;-84
2023/12/02 05:30:18;;;;;;;5.60;2.03;;;10.10;87.50;;;;;;4923517;29;20214;-83
2023/12/02 05:32:50;;;;;;;1.37;1.30;;;10.10;87.30;;;;;;4929066;29;20199;-82
2023/12/02 05:35:21;;;;;;;4.43;2.80;;;10.20;87.30;;;;;;4930209;29;20218;-84
2023/12/02 05:37:51;;;;;;;2.30;1.83;;;10.20;87.20;;;;;;4916170;29;20207;-83
2023/12/02 05:40:21;;;;;;;2.57;1.53;;;10.20;87.00;;;;;;4927825;29;20567;-85
2023/12/02 05:42:50;;;;;;;2.30;1.53;;;10.20;87.00;;;;;;4916153;29;20533;-86
2023/12/02 05:45:18;;;;;;;1.97;1.87;;;10.30;87.00;;;;;;4929217;29;20227;-84
2023/12/02 05:47:50;;;;;;;2.20;0.80;;;10.30;86.90;;;;;;4928097;29;20239;-83
2023/12/02 05:50:19;;;;;;;1.60;1.50;;;10.30;86.90;;;;;;4933209;29;20199;-84
2023/12/02 05:52:49;;;;;;;2.87;1.57;;;10.30;86.80;;;;;;4932234;29;20202;-83
2023/12/02 05:55:18;;;;;;;3.50;2.57;;;10.30;86.70;;;;;;4928232;29;20285;-85
2023/12/02 05:57:47;;;;;;;2.10;1.83;;;10.40;86.70;;;;;;4931258;29;20690;-85
2023/12/02 06:00:18;;;;;;;1.00;1.00;;;10.40;86.60;;;;;;4916667;29;20209;-85
2023/12/02 06:02:49;;;;;;;3.60;1.47;;;10.40;86.60;;;;;;4935187;29;20576;-86
2023/12/02 06:05:21;;;;;;;5.00;2.50;;;10.40;86.50;;;;;;4936200;29;20298;-85
2023/12/02 06:07:51;;;;;;;1.53;1.43;;;10.40;86.60;;;;;;4931221;29;20199;-84
2023/12/02 06:10:20;;;;;;;1.23;1.13;;;10.40;86.40;;;;;;4928857;29;20200;-86
2023/12/02 06:12:50;;;;;;;1.60;1.50;;;10.50;86.40;;;;;;4937359;29;20606;-88
2023/12/02 06:15:19;;;;;;;1.27;1.17;;;10.50;86.40;;;;;;4937074;29;20199;-88
2023/12/02 06:17:48;;;;;;;1.70;1.60;;;10.50;86.50;;;;;;4932366;29;20254;-85
2023/12/02 06:20:17;;;;;;;2.33;1.67;;;10.50;86.50;;;;;;4916204;29;20214;-82
2023/12/02 06:22:51;;;;;;;1.77;1.30;;;10.60;86.50;;;;;;4940718;29;20202;-85
2023/12/02 06:25:20;;;;;;;4.23;2.73;;;10.60;86.40;;;;;;4931701;29;20227;-85
2023/12/02 06:27:48;;;;;;;1.53;1.40;;;10.60;86.40;;;;;;4933186;29;20227;-86
2023/12/02 06:30:18;;;;;;;4.50;2.50;;;10.60;86.30;;;;;;4913868;29;20271;-84
2023/12/02 06:32:47;;;;;;;0.87;0.87;;;10.70;86.40;;;;;;4924747;29;20290;-85
2023/12/02 06:35:16;;;;;;;5.47;2.13;;;10.70;86.40;;;;;;4912694;29;20570;-85
2023/12/02 06:37:45;;;;;;;1.60;1.33;;;10.70;86.50;;;;;;4913126;29;20196;-84
2023/12/02 06:40:17;;;;;;;4.43;1.63;;;10.80;86.50;;;;;;4911558;29;20243;-84
2023/12/02 06:42:46;;;;;;;1.50;1.40;;;10.80;86.50;;;;;;4910398;29;20656;-86
2023/12/02 06:45:15;;;;;;;1.70;1.60;;;10.80;86.50;;;;;;4912610;29;20215;-84
2023/12/02 06:47:44;;;;;;;1.47;1.37;;;10.80;86.60;;;;;;4911291;29;20212;-86
2023/12/02 06:50:13;;;;;;;3.17;2.13;;;10.90;86.60;;;;;;4921325;29;20200;-86
2023/12/02 06:52:43;;;;;;;2.17;1.60;;;10.90;86.60;;;;;;4913159;29;20735;-85
2023/12/02 06:55:11;;;;;;;2.43;1.43;;;11.00;86.70;;;;;;4912812;29;20539;-85
2023/12/02 06:57:46;;;;;;;2.07;1.97;;;11.00;86.60;;;;;;4912288;29;20236;-86
2023/12/02 07:00:16;;;;;;;1.83;1.73;;;11.10;86.80;;;;;;4913960;29;20234;-86
2023/12/02 07:02:45;;;;;;;4.13;1.17;;;11.20;86.80;;;;;;4895458;29;20234;-84
2023/12/02 07:05:15;;;;;;;1.27;1.20;;;11.30;86.90;;;;;;4914663;29;20255;-86
2023/12/02 07:07:44;;;;;;;1.73;1.63;;;11.30;86.80;;;;;;4909595;29;20295;-86
2023/12/02 07:10:14;;;;;;;1.40;1.30;;;11.40;86.80;;;;;;4901805;29;20640;-86
2023/12/02 07:12:43;;;;;;;1.43;1.33;;;11.40;86.80;;;;;;4913125;29;20745;-85
2023/12/02 07:15:13;;;;;;;2.40;1.20;;;11.50;86.80;;;;;;4902653;29;20603;-80
2023/12/02 07:17:42;;;;;;;2.30;2.00;;;11.50;86.70;;;;;;4916692;29;20231;-85
2023/12/02 07:20:14;;;;;;;2.37;1.63;;;11.60;86.70;;;;;;4908714;29;20254;-84
2023/12/02 07:22:42;;;;;;;1.00;0.90;;;11.70;86.80;;;;;;4910292;29;20199;-83
2023/12/02 07:25:14;;;;;;;0.90;0.90;;;11.70;86.80;;;;;;4924625;29;20274;-86
2023/12/02 07:27:45;;;;;;;2.33;0.90;;;11.80;87.60;;;;;;4897054;29;20313;-89
2023/12/02 07:30:27;;;;;;;5.50;2.40;;;11.90;86.90;;;;;;4932413;29;20854;-86
2023/12/02 07:32:58;;;;;;;6.50;3.10;;;12.00;87.10;;;;;;4938060;29;20199;-87
2023/12/02 07:35:28;;;;;;;2.37;1.83;;;12.10;87.30;;;;;;4926802;29;20278;-86
2023/12/02 07:37:57;;;;;;;4.43;1.97;;;12.10;87.30;;;;;;4930831;29;20201;-87
2023/12/02 07:40:25;;;;;;;2.53;2.33;;;12.20;87.30;;;;;;4932466;29;20285;-87
2023/12/02 07:42:54;;;;;;;2.17;1.77;;;12.40;87.40;;;;;;4931124;29;20571;-84
2023/12/02 07:45:24;;;;;;;4.27;2.70;;;12.50;87.30;;;;;;4928566;29;20655;-84
2023/12/02 07:47:53;;;;;;;2.17;1.33;;;12.60;87.30;;;;;;4932456;29;20558;-86
2023/12/02 07:50:24;;;;;;;2.63;2.27;;;12.70;87.20;;;;;;4930524;29;20681;-85
2023/12/02 07:52:54;;;;;;;2.70;2.13;;;12.80;87.20;;;;;;4929582;29;20191;-87
2023/12/02 07:55:23;;;;;;;1.87;1.53;;;12.90;87.00;;;;;;4933073;29;20651;-86
2023/12/02 07:57:53;;;;;;;2.07;1.87;;;13.00;87.00;;;;;;4929515;29;20337;-87
2023/12/02 08:00:25;;;;;;;5.30;1.10;;;13.20;87.10;;;;;;4933198;29;20213;-87
2023/12/02 08:02:56;;;;;;;1.57;1.37;;;13.30;87.10;;;;;;4929715;29;20554;-84
2023/12/02 08:05:25;;;;;;;1.33;1.23;;;13.40;87.00;;;;;;4914319;29;20203;-83
2023/12/02 08:07:57;;;;;;;5.47;2.13;;;13.60;87.10;;;;;;4937674;29;20229;-82
2023/12/02 08:10:28;;;;;;;2.50;2.17;;;13.80;87.00;;;;;;4931364;29;20213;-83
2023/12/02 08:12:57;;;;;;;1.47;1.30;;;14.00;86.60;;;;;;4933156;29;20203;-83
2023/12/02 08:15:27;;;;;;;0.93;0.90;;;14.10;86.60;;;;;;4925121;29;20207;-83
2023/12/02 08:17:56;;;;;;;1.80;1.70;;;14.30;86.70;;;;;;4944177;29;20295;-83
2023/12/02 08:20:25;;;;;;;1.83;1.70;;;14.50;86.30;;;;;;4933083;29;20215;-83
2023/12/02 08:22:53;;;;;;;2.67;1.83;;;14.60;86.00;;;;;;4938976;29;20200;-83
2023/12/02 08:25:22;;;;;;;2.40;1.57;;;14.80;85.60;;;;;;4932913;29;20200;-83
2023/12/02 08:27:51;;;;;;;2.10;1.20;;;14.90;85.30;;;;;;4930796;29;20255;-84
2023/12/02 08:30:20;;;;;;;2.43;1.90;;;15.00;85.60;;;;;;4914006;29;20850;-84
2023/12/02 08:32:50;;;;;;;1.20;1.10;;;15.20;85.30;;;;;;4913600;29;20207;-83
2023/12/02 08:35:19;;;;;;;3.80;1.90;;;15.30;84.80;;;;;;4909858;29;20315;-81
2023/12/02 08:37:48;;;;;;;2.73;1.53;;;15.30;84.40;;;;;;4918361;29;20248;-84
2023/12/02 08:40:17;;;;;;;0.80;0.80;;;15.40;83.80;;;;;;4910979;29;20283;-83
2023/12/02 08:42:45;;;;;;;3.40;2.67;;;15.40;83.50;;;;;;4913369;29;20196;-83
2023/12/02 08:45:14;;;;;;;1.93;1.73;;;15.50;83.40;;;;;;4914149;29;20199;-82
2023/12/02 08:47:42;;;;;;;1.53;1.43;;;15.50;83.70;;;;;;4923114;29;20215;-82
2023/12/02 08:50:12;;;;;;;2.43;2.03;;;15.60;83.70;;;;;;4923333;29;20203;-81
2023/12/02 08:52:41;;;;;;;1.27;1.17;;;15.70;83.80;;;;;;4911851;29;20200;-81
2023/12/02 08:55:10;;;;;;;2.30;1.63;;;15.70;83.70;;;;;;4913751;29;20223;-83
2023/12/02 08:57:42;;;;;;;1.43;1.10;;;15.70;83.60;;;;;;4906493;29;20672;-80
2023/12/02 09:00:12;;;;;;;2.27;1.97;;;15.80;83.70;;;;;;4914232;29;20200;-81
2023/12/02 09:02:41;;;;;;;2.43;1.30;;;15.80;83.60;;;;;;4909198;29;20219;-81
2023/12/02 09:05:10;;;;;;;2.03;0.70;;;15.80;83.60;;;;;;4915259;29;20270;-81
2023/12/02 09:07:40;;;;;;;1.33;1.23;;;15.80;83.50;;;;;;4911845;29;20912;-81
2023/12/02 09:10:10;;;;;;;1.07;0.97;;;15.90;83.60;;;;;;4907933;29;20648;-80
2023/12/02 09:12:39;;;;;;;2.90;1.67;;;15.90;83.60;;;;;;4910583;29;20193;-87
2023/12/02 09:15:09;;;;;;;1.33;1.03;;;16.00;83.50;;;;;;4919388;29;20294;-82
2023/12/02 09:18:04;;;;;;;0.73;0.73;;;16.00;83.30;;;;;;4911601;29;20208;-84
2023/12/02 09:20:48;;;;;;;1.57;1.47;;;16.00;83.30;;;;;;4905719;29;20207;-79
2023/12/02 09:23:20;;;;;;;1.10;0.97;;;16.10;83.30;;;;;;4909307;29;20282;-81
2023/12/02 09:25:50;;;;;;;1.37;0.53;;;16.10;83.20;;;;;;4908760;29;20196;-81
2023/12/02 09:28:23;;;;;;;2.83;1.37;;;16.10;83.20;;;;;;4917453;29;20321;-80
2023/12/02 09:31:01;;;;;;;2.57;1.30;;;16.20;83.30;;;;;;4930449;29;20198;-80
2023/12/02 09:33:38;;;;;;;4.50;0.87;;;16.10;83.20;;;;;;4929239;29;20290;-79
2023/12/02 09:36:09;;;;;;;1.37;1.23;;;16.20;83.10;;;;;;4922828;29;20199;-81
2023/12/02 09:38:39;;;;;;;0.50;0.50;;;16.20;83.10;;;;;;4929618;29;20195;-79
2023/12/02 09:41:31;;;;;;;0.97;0.87;;;16.30;83.10;;;;;;4931459;29;20205;-79
2023/12/02 09:44:11;;;;;;;0.93;0.73;;;16.30;83.00;;;;;;4928465;29;20507;-80
2023/12/02 09:46:49;;;;;;;1.23;1.07;;;16.30;83.00;;;;;;4928598;29;20203;-80
2023/12/02 09:49:53;;;;;;;2.03;1.60;;;16.30;82.80;;;;;;4925345;29;20199;-79
2023/12/02 09:52:42;;;;;;;3.90;1.73;;;16.40;82.80;;;;;;4928970;29;20207;-79
2023/12/02 09:55:19;;;;;;;2.43;1.30;;;16.40;82.90;;;;;;4930013;29;20684;-79
2023/12/02 09:57:56;;;;;;;1.37;1.27;;;16.50;82.80;;;;;;4927903;29;20207;-79
2023/12/02 10:00:37;;;;;;;2.40;1.83;;;16.50;82.70;;;;;;4925612;29;20214;-79
2023/12/02 10:03:22;;;;;;;1.07;1.00;;;16.60;82.60;;;;;;4925889;29;20203;-78
2023/12/02 10:06:00;;;;;;;2.60;1.60;;;16.60;82.50;;;;;;4928712;29;20195;-78
2023/12/02 10:08:41;;;;;;;3.30;1.47;;;16.70;82.50;;;;;;4930010;29;20230;-78
2023/12/02 10:11:19;;;;;;;1.87;1.77;;;16.70;82.20;;;;;;4928440;29;20203;-79
2023/12/02 10:14:00;;;;;;;3.03;1.60;;;16.70;82.10;;;;;;4923902;29;20650;-79
2023/12/02 10:16:31;;;;;;;2.63;1.37;;;16.70;82.00;;;;;;4925563;29;20202;-78
2023/12/02 10:19:02;;;;;;;3.80;2.33;;;16.80;82.00;;;;;;4918343;29;20231;-80
2023/12/02 10:21:33;;;;;;;1.40;1.30;;;16.70;82.00;;;;;;4930877;29;20206;-78
2023/12/02 10:24:05;;;;;;;2.40;1.97;;;16.80;82.10;;;;;;4929293;29;20664;-79
2023/12/02 10:26:42;;;;;;;1.13;1.10;;;16.80;81.90;;;;;;4931187;29;20658;-80
2023/12/02 10:29:17;;;;;;;3.10;2.50;;;16.80;81.60;;;;;;4926512;29;20248;-81
2023/12/02 10:31:55;;;;;;;3.73;1.77;;;16.80;81.80;;;;;;4930834;29;20199;-80
2023/12/02 10:34:29;;;;;;;1.93;1.20;;;16.80;81.70;;;;;;4922918;29;20202;-81
2023/12/02 10:37:00;;;;;;;2.07;1.90;;;16.80;81.70;;;;;;4927089;29;20655;-80
2023/12/02 10:39:40;;;;;;;1.00;0.80;;;16.80;81.70;;;;;;4935028;29;20211;-81
2023/12/02 10:42:17;;;;;;;1.43;1.27;;;16.80;81.70;;;;;;4929752;29;20262;-80
2023/12/02 10:44:56;;;;;;;1.37;1.17;;;16.80;81.60;;;;;;4930305;29;20195;-79
2023/12/02 10:47:25;;;;;;;1.43;1.33;;;16.80;81.70;;;;;;4927460;29;20194;-80
2023/12/02 10:49:54;;;;;;;0.80;0.80;;;16.90;81.80;;;;;;4928835;29;20199;-79
2023/12/02 10:52:24;;;;;;;1.80;0.83;;;16.90;81.80;;;;;;4931153;29;20290;-79
2023/12/02 10:54:59;;;;;;;4.23;2.77;;;16.90;81.80;;;;;;4925908;29;20203;-78
2023/12/02 10:57:30;;;;;;;6.40;1.50;;;16.90;81.30;;;;;;4931862;29;20201;-87
2023/12/02 11:00:06;;;;;;;2.33;1.97;;;16.90;81.30;;;;;;4925418;29;20227;-84
2023/12/02 11:02:43;;;;;;;2.20;2.00;;;17.00;82.30;;;;;;4931447;29;20632;-83
2023/12/02 11:05:21;;;;;;;6.30;2.23;;;17.00;81.30;;;;;;4936169;29;21038;-82
2023/12/02 11:07:53;;;;;;;6.13;2.10;;;17.00;81.20;;;;;;4927869;29;20227;-81
2023/12/02 11:10:34;;;;;;;1.63;1.53;;;17.00;81.20;;;;;;4936726;29;20195;-82
2023/12/02 11:13:12;;;;;;;3.47;2.87;;;17.00;81.20;;;;;;4931250;29;20214;-84
2023/12/02 11:15:54;;;;;;;5.27;2.50;;;17.00;81.10;;;;;;4924542;29;20202;-83
2023/12/02 11:18:41;;;;;;;5.53;1.70;;;17.00;81.10;;;;;;4939940;29;20300;-83
2023/12/02 11:21:21;;;;;;;4.10;1.70;;;17.00;81.10;;;;;;4939638;29;20202;-82
2023/12/02 11:24:03;;;;;;;2.37;1.37;;;17.00;81.10;;;;;;4931135;29;20673;-82
2023/12/02 11:26:40;;;;;;;1.83;1.20;;;17.00;81.10;;;;;;4925657;29;20269;-82
2023/12/02 11:29:19;;;;;;;9.03;1.77;;;17.00;81.00;;;;;;4926719;29;20797;-83
2023/12/02 11:32:18;;;;;;;2.73;1.70;;;17.00;80.90;;;;;;4929214;29;20202;-82
2023/12/02 11:35:07;;;;;;;2.67;2.37;;;17.00;80.90;;;;;;4903517;29;20205;-83
2023/12/02 11:37:49;;;;;;;3.57;2.13;;;17.00;80.90;;;;;;4927401;29;20195;-81
2023/12/02 11:40:22;;;;;;;6.33;1.93;;;17.00;80.90;;;;;;4912494;29;20207;-81
2023/12/02 11:42:56;;;;;;;5.27;2.63;;;16.90;80.50;;;;;;4922466;29;20229;-83
2023/12/02 11:45:33;;;;;;;0.90;0.90;;;16.90;80.30;;;;;;4931289;29;20633;-83
2023/12/02 11:48:17;;;;;;;3.43;2.07;;;16.90;80.10;;;;;;4929794;29;20281;-82
2023/12/02 11:51:02;;;;;;;3.17;1.77;;;16.90;79.70;;;;;;4928926;29;20191;-84
2023/12/02 11:53:44;;;;;;;3.03;1.93;;;16.80;79.70;;;;;;4931155;29;20285;-84
2023/12/02 11:56:17;;;;;;;12.70;4.57;;;16.90;80.00;;;;;;4929229;29;20686;-81
2023/12/02 11:58:53;;;;;;;3.37;2.50;;;16.80;79.50;;;;;;4925695;29;20195;-81
2023/12/02 12:01:51;;;;;;;2.87;2.30;;;16.80;79.30;;;;;;4927311;29;20290;-83
2023/12/02 12:04:44;;;;;;;5.10;2.50;;;16.80;79.40;;;;;;4927420;29;20584;-83
2023/12/02 12:07:24;;;;;;;2.43;1.80;;;16.80;79.50;;;;;;4922185;29;20290;-84
2023/12/02 12:10:04;;;;;;;1.80;1.70;;;16.80;79.60;;;;;;4927862;29;20215;-83
2023/12/02 12:12:37;;;;;;;2.07;1.50;;;16.70;79.10;;;;;;4920390;29;20207;-82
2023/12/02 12:15:07;;;;;;;2.53;1.60;;;16.70;79.30;;;;;;4933968;29;20202;-83
2023/12/02 12:17:38;;;;;;;2.13;1.93;;;16.70;79.40;;;;;;4923912;29;20202;-81
2023/12/02 12:20:20;;;;;;;1.83;1.50;;;16.70;79.60;;;;;;4940306;29;20559;-83
2023/12/02 12:22:49;;;;;;;3.67;1.30;;;16.70;79.60;;;;;;4923961;29;20202;-84
2023/12/02 12:25:16;;;;;;;1.90;1.57;;;16.70;79.40;;;;;;4926413;29;20676;-84
2023/12/02 12:27:45;;;;;;;1.50;1.20;;;16.70;79.50;;;;;;4917732;29;20204;-84
2023/12/02 12:30:14;;;;;;;1.27;1.07;;;16.80;79.40;;;;;;4922366;29;20236;-84
2023/12/02 12:32:44;;;;;;;3.23;2.27;;;16.80;79.30;;;;;;4934141;29;20195;-83
2023/12/02 12:35:14;;;;;;;2.87;1.30;;;16.80;79.30;;;;;;4927912;29;20203;-84
2023/12/02 12:37:44;;;;;;;1.67;1.27;;;16.80;79.40;;;;;;4922661;29;20648;-85
2023/12/02 12:40:13;;;;;;;1.13;1.03;;;16.80;79.40;;;;;;4930511;29;20210;-84
2023/12/02 12:42:47;;;;;;;1.40;1.30;;;16.80;79.40;;;;;;4920185;29;20192;-85
2023/12/02 12:45:16;;;;;;;1.63;1.20;;;16.80;79.50;;;;;;4928943;29;20722;-83
2023/12/02 12:47:48;;;;;;;2.20;1.47;;;16.70;79.40;;;;;;4926277;29;20200;-85
2023/12/02 12:50:20;;;;;;;8.60;3.90;;;16.80;79.60;;;;;;4914984;29;20238;-85
2023/12/02 12:52:51;;;;;;;3.20;2.03;;;16.80;79.60;;;;;;4925236;29;20217;-84
2023/12/02 12:55:23;;;;;;;4.27;1.30;;;16.90;79.70;;;;;;4935003;29;20234;-83
2023/12/02 12:57:54;;;;;;;2.17;1.87;;;16.90;79.70;;;;;;4934752;29;20263;-84
2023/12/02 13:00:27;;;;;;;2.67;1.40;;;16.90;79.70;;;;;;4931194;29;20620;-83
2023/12/02 13:03:27;;;;;;;0.87;0.83;;;16.90;79.70;;;;;;4927965;29;20322;-83
2023/12/02 13:06:10;;;;;;;2.53;1.33;;;16.90;79.70;;;;;;4928420;29;20660;-83
2023/12/02 13:08:47;;;;;;;4.53;1.93;;;17.00;79.70;;;;;;4924255;29;20207;-82
2023/12/02 13:11:23;;;;;;;3.40;1.40;;;17.00;79.60;;;;;;4929483;29;20207;-83
2023/12/02 13:14:06;;;;;;;5.63;2.20;;;17.00;79.60;;;;;;4921924;29;20286;-83